sensor_id;sensor_type;location;lat;lon;timestamp;P1;durP1;ratioP1;P2;durP2;ratioP2
51913;SDS011;37940;53.002;6.930;2022-11-20T00:01:08;27.08;;;15.15;;
51913;SDS011;37940;53.002;6.930;2022-11-20T00:03:35;27.33;;;15.93;;
51913;SDS011;37940;53.002;6.930;2022-11-20T00:06:02;26.40;;;15.77;;
51913;SDS011;37940;53.002;6.930;2022-11-20T00:08:29;28.77;;;15.65;;
51913;SDS011;37940;53.002;6.930;2022-11-20T00:10:55;26.23;;;15.30;;
51913;SDS011;37940;53.002;6.930;2022-11-20T00:13:21;27.08;;;16.08;;
51913;SDS011;37940;53.002;6.930;2022-11-20T00:15:47;30.70;;;17.48;;
51913;SDS011;37940;53.002;6.930;2022-11-20T00:18:13;34.78;;;20.75;;
51913;SDS011;37940;53.002;6.930;2022-11-20T00:20:38;28.33;;;17.42;;
51913;SDS011;37940;53.002;6.930;2022-11-20T00:23:04;30.90;;;18.67;;
51913;SDS011;37940;53.002;6.930;2022-11-20T00:25:33;31.55;;;19.00;;
51913;SDS011;37940;53.002;6.930;2022-11-20T00:28:00;33.13;;;19.05;;
51913;SDS011;37940;53.002;6.930;2022-11-20T00:30:26;28.48;;;16.85;;
51913;SDS011;37940;53.002;6.930;2022-11-20T00:32:51;28.33;;;17.15;;
51913;SDS011;37940;53.002;6.930;2022-11-20T00:35:17;28.15;;;17.05;;
51913;SDS011;37940;53.002;6.930;2022-11-20T00:37:43;32.50;;;18.83;;
51913;SDS011;37940;53.002;6.930;2022-11-20T00:40:09;27.60;;;17.10;;
51913;SDS011;37940;53.002;6.930;2022-11-20T00:42:34;27.33;;;16.88;;
51913;SDS011;37940;53.002;6.930;2022-11-20T00:45:00;30.90;;;18.05;;
51913;SDS011;37940;53.002;6.930;2022-11-20T00:47:26;27.92;;;17.80;;
51913;SDS011;37940;53.002;6.930;2022-11-20T00:49:51;26.60;;;16.45;;
51913;SDS011;37940;53.002;6.930;2022-11-20T00:52:17;26.98;;;16.35;;
51913;SDS011;37940;53.002;6.930;2022-11-20T00:54:43;31.48;;;17.15;;
51913;SDS011;37940;53.002;6.930;2022-11-20T00:57:08;30.02;;;16.83;;
51913;SDS011;37940;53.002;6.930;2022-11-20T00:59:34;27.92;;;17.35;;
51913;SDS011;37940;53.002;6.930;2022-11-20T01:02:00;33.20;;;18.60;;
51913;SDS011;37940;53.002;6.930;2022-11-20T01:04:25;30.63;;;15.95;;
51913;SDS011;37940;53.002;6.930;2022-11-20T01:06:51;27.27;;;16.33;;
51913;SDS011;37940;53.002;6.930;2022-11-20T01:09:17;26.85;;;16.02;;
51913;SDS011;37940;53.002;6.930;2022-11-20T01:11:43;27.27;;;15.05;;
51913;SDS011;37940;53.002;6.930;2022-11-20T01:14:16;24.63;;;14.95;;
51913;SDS011;37940;53.002;6.930;2022-11-20T01:16:46;25.67;;;15.23;;
51913;SDS011;37940;53.002;6.930;2022-11-20T01:19:15;26.52;;;14.93;;
51913;SDS011;37940;53.002;6.930;2022-11-20T01:21:49;28.95;;;16.13;;
51913;SDS011;37940;53.002;6.930;2022-11-20T01:24:17;25.67;;;15.57;;
51913;SDS011;37940;53.002;6.930;2022-11-20T01:26:46;26.95;;;15.18;;
51913;SDS011;37940;53.002;6.930;2022-11-20T01:29:15;26.02;;;15.63;;
51913;SDS011;37940;53.002;6.930;2022-11-20T01:31:43;27.77;;;15.60;;
51913;SDS011;37940;53.002;6.930;2022-11-20T01:34:10;27.23;;;15.57;;
51913;SDS011;37940;53.002;6.930;2022-11-20T01:36:37;27.27;;;15.55;;
51913;SDS011;37940;53.002;6.930;2022-11-20T01:39:05;27.00;;;14.45;;
51913;SDS011;37940;53.002;6.930;2022-11-20T01:41:42;27.48;;;15.50;;
51913;SDS011;37940;53.002;6.930;2022-11-20T01:44:45;26.25;;;14.65;;
51913;SDS011;37940;53.002;6.930;2022-11-20T01:47:21;25.17;;;15.63;;
51913;SDS011;37940;53.002;6.930;2022-11-20T01:50:11;28.40;;;15.25;;
51913;SDS011;37940;53.002;6.930;2022-11-20T01:52:47;25.25;;;14.90;;
51913;SDS011;37940;53.002;6.930;2022-11-20T01:55:21;25.42;;;15.07;;
51913;SDS011;37940;53.002;6.930;2022-11-20T01:57:51;25.55;;;14.93;;
51913;SDS011;37940;53.002;6.930;2022-11-20T02:00:18;22.92;;;14.15;;
51913;SDS011;37940;53.002;6.930;2022-11-20T02:02:56;22.25;;;13.88;;
51913;SDS011;37940;53.002;6.930;2022-11-20T02:07:57;23.38;;;14.80;;
51913;SDS011;37940;53.002;6.930;2022-11-20T02:10:24;25.10;;;14.13;;
51913;SDS011;37940;53.002;6.930;2022-11-20T02:12:52;24.15;;;14.90;;
51913;SDS011;37940;53.002;6.930;2022-11-20T02:15:36;22.42;;;14.07;;
51913;SDS011;37940;53.002;6.930;2022-11-20T02:18:02;24.52;;;14.43;;
51913;SDS011;37940;53.002;6.930;2022-11-20T02:20:29;23.13;;;13.85;;
51913;SDS011;37940;53.002;6.930;2022-11-20T02:22:56;23.45;;;14.00;;
51913;SDS011;37940;53.002;6.930;2022-11-20T02:25:27;24.10;;;13.75;;
51913;SDS011;37940;53.002;6.930;2022-11-20T02:27:56;23.73;;;14.35;;
51913;SDS011;37940;53.002;6.930;2022-11-20T02:30:21;25.13;;;14.30;;
51913;SDS011;37940;53.002;6.930;2022-11-20T02:32:47;25.40;;;13.23;;
51913;SDS011;37940;53.002;6.930;2022-11-20T02:37:46;21.77;;;13.48;;
51913;SDS011;37940;53.002;6.930;2022-11-20T02:40:14;19.65;;;13.07;;
51913;SDS011;37940;53.002;6.930;2022-11-20T02:42:40;22.23;;;14.00;;
51913;SDS011;37940;53.002;6.930;2022-11-20T02:45:06;22.52;;;13.68;;
51913;SDS011;37940;53.002;6.930;2022-11-20T02:47:32;22.55;;;14.07;;
51913;SDS011;37940;53.002;6.930;2022-11-20T02:49:58;21.63;;;13.52;;
51913;SDS011;37940;53.002;6.930;2022-11-20T02:52:24;21.38;;;13.13;;
51913;SDS011;37940;53.002;6.930;2022-11-20T02:54:50;26.40;;;13.43;;
51913;SDS011;37940;53.002;6.930;2022-11-20T02:57:16;20.58;;;12.63;;
51913;SDS011;37940;53.002;6.930;2022-11-20T02:59:41;22.20;;;13.02;;
51913;SDS011;37940;53.002;6.930;2022-11-20T03:02:07;20.58;;;13.25;;
51913;SDS011;37940;53.002;6.930;2022-11-20T03:04:33;21.15;;;13.52;;
51913;SDS011;37940;53.002;6.930;2022-11-20T03:06:58;22.33;;;13.60;;
51913;SDS011;37940;53.002;6.930;2022-11-20T03:09:24;20.77;;;13.40;;
51913;SDS011;37940;53.002;6.930;2022-11-20T03:11:50;21.35;;;13.13;;
51913;SDS011;37940;53.002;6.930;2022-11-20T03:14:16;25.00;;;13.48;;
51913;SDS011;37940;53.002;6.930;2022-11-20T03:16:41;20.58;;;12.88;;
51913;SDS011;37940;53.002;6.930;2022-11-20T03:19:07;23.95;;;13.73;;
51913;SDS011;37940;53.002;6.930;2022-11-20T03:21:33;22.88;;;13.07;;
51913;SDS011;37940;53.002;6.930;2022-11-20T03:23:59;23.05;;;13.43;;
51913;SDS011;37940;53.002;6.930;2022-11-20T03:26:26;21.13;;;12.90;;
51913;SDS011;37940;53.002;6.930;2022-11-20T03:28:56;23.02;;;13.82;;
51913;SDS011;37940;53.002;6.930;2022-11-20T03:31:30;24.40;;;14.02;;
51913;SDS011;37940;53.002;6.930;2022-11-20T03:34:01;21.40;;;13.55;;
51913;SDS011;37940;53.002;6.930;2022-11-20T03:36:27;20.15;;;12.90;;
51913;SDS011;37940;53.002;6.930;2022-11-20T03:38:54;21.80;;;13.45;;
51913;SDS011;37940;53.002;6.930;2022-11-20T03:41:21;21.75;;;14.02;;
51913;SDS011;37940;53.002;6.930;2022-11-20T03:43:55;23.23;;;14.18;;
51913;SDS011;37940;53.002;6.930;2022-11-20T03:46:26;22.45;;;14.05;;
51913;SDS011;37940;53.002;6.930;2022-11-20T03:48:52;22.95;;;14.18;;
51913;SDS011;37940;53.002;6.930;2022-11-20T03:51:20;21.25;;;14.02;;
51913;SDS011;37940;53.002;6.930;2022-11-20T03:53:48;21.75;;;13.90;;
51913;SDS011;37940;53.002;6.930;2022-11-20T03:56:16;23.15;;;14.90;;
51913;SDS011;37940;53.002;6.930;2022-11-20T03:58:44;21.23;;;13.68;;
51913;SDS011;37940;53.002;6.930;2022-11-20T04:01:17;21.67;;;13.02;;
51913;SDS011;37940;53.002;6.930;2022-11-20T04:03:44;19.83;;;13.48;;
51913;SDS011;37940;53.002;6.930;2022-11-20T04:06:14;19.75;;;13.10;;
51913;SDS011;37940;53.002;6.930;2022-11-20T04:08:42;27.90;;;13.93;;
51913;SDS011;37940;53.002;6.930;2022-11-20T04:13:38;21.60;;;14.05;;
51913;SDS011;37940;53.002;6.930;2022-11-20T04:16:05;23.42;;;14.27;;
51913;SDS011;37940;53.002;6.930;2022-11-20T04:18:32;22.05;;;14.43;;
51913;SDS011;37940;53.002;6.930;2022-11-20T04:20:58;23.00;;;13.85;;
51913;SDS011;37940;53.002;6.930;2022-11-20T04:23:24;21.77;;;13.85;;
51913;SDS011;37940;53.002;6.930;2022-11-20T04:25:51;22.20;;;13.68;;
51913;SDS011;37940;53.002;6.930;2022-11-20T04:28:16;22.02;;;14.05;;
51913;SDS011;37940;53.002;6.930;2022-11-20T04:30:42;22.85;;;13.95;;
51913;SDS011;37940;53.002;6.930;2022-11-20T04:33:08;19.77;;;13.68;;
51913;SDS011;37940;53.002;6.930;2022-11-20T04:35:34;22.42;;;13.60;;
51913;SDS011;37940;53.002;6.930;2022-11-20T04:38:00;21.17;;;14.02;;
51913;SDS011;37940;53.002;6.930;2022-11-20T04:40:27;21.67;;;13.48;;
51913;SDS011;37940;53.002;6.930;2022-11-20T04:42:53;22.80;;;14.00;;
51913;SDS011;37940;53.002;6.930;2022-11-20T04:45:20;24.13;;;14.48;;
51913;SDS011;37940;53.002;6.930;2022-11-20T04:47:45;22.67;;;13.90;;
51913;SDS011;37940;53.002;6.930;2022-11-20T04:50:11;22.40;;;13.73;;
51913;SDS011;37940;53.002;6.930;2022-11-20T04:52:37;23.20;;;15.02;;
51913;SDS011;37940;53.002;6.930;2022-11-20T04:55:02;21.90;;;14.05;;
51913;SDS011;37940;53.002;6.930;2022-11-20T04:57:28;21.45;;;12.82;;
51913;SDS011;37940;53.002;6.930;2022-11-20T04:59:54;22.17;;;13.77;;
51913;SDS011;37940;53.002;6.930;2022-11-20T05:02:20;21.88;;;13.85;;
51913;SDS011;37940;53.002;6.930;2022-11-20T05:04:46;24.15;;;13.25;;
51913;SDS011;37940;53.002;6.930;2022-11-20T05:07:11;20.15;;;13.05;;
51913;SDS011;37940;53.002;6.930;2022-11-20T05:09:37;21.08;;;13.85;;
51913;SDS011;37940;53.002;6.930;2022-11-20T05:12:03;20.73;;;13.35;;
51913;SDS011;37940;53.002;6.930;2022-11-20T05:14:29;21.63;;;13.32;;
51913;SDS011;37940;53.002;6.930;2022-11-20T05:16:54;22.13;;;14.30;;
51913;SDS011;37940;53.002;6.930;2022-11-20T05:19:20;23.27;;;13.52;;
51913;SDS011;37940;53.002;6.930;2022-11-20T05:21:46;21.08;;;13.48;;
51913;SDS011;37940;53.002;6.930;2022-11-20T05:24:12;20.95;;;13.85;;
51913;SDS011;37940;53.002;6.930;2022-11-20T05:26:37;20.50;;;13.40;;
51913;SDS011;37940;53.002;6.930;2022-11-20T05:29:03;21.00;;;13.13;;
51913;SDS011;37940;53.002;6.930;2022-11-20T05:31:29;22.02;;;13.70;;
51913;SDS011;37940;53.002;6.930;2022-11-20T05:33:55;22.20;;;12.85;;
51913;SDS011;37940;53.002;6.930;2022-11-20T05:36:21;19.42;;;12.90;;
51913;SDS011;37940;53.002;6.930;2022-11-20T05:38:47;22.33;;;14.02;;
51913;SDS011;37940;53.002;6.930;2022-11-20T05:41:14;22.55;;;13.73;;
51913;SDS011;37940;53.002;6.930;2022-11-20T05:43:42;21.77;;;13.70;;
51913;SDS011;37940;53.002;6.930;2022-11-20T05:46:10;23.15;;;13.35;;
51913;SDS011;37940;53.002;6.930;2022-11-20T05:48:38;21.98;;;13.63;;
51913;SDS011;37940;53.002;6.930;2022-11-20T05:51:05;20.42;;;13.07;;
51913;SDS011;37940;53.002;6.930;2022-11-20T05:53:33;20.77;;;13.15;;
51913;SDS011;37940;53.002;6.930;2022-11-20T05:56:00;20.02;;;12.98;;
51913;SDS011;37940;53.002;6.930;2022-11-20T05:58:31;19.10;;;13.05;;
51913;SDS011;37940;53.002;6.930;2022-11-20T06:01:08;20.25;;;13.20;;
51913;SDS011;37940;53.002;6.930;2022-11-20T06:03:42;24.50;;;14.20;;
51913;SDS011;37940;53.002;6.930;2022-11-20T06:06:10;19.98;;;12.88;;
51913;SDS011;37940;53.002;6.930;2022-11-20T06:08:36;19.40;;;12.60;;
51913;SDS011;37940;53.002;6.930;2022-11-20T06:11:03;21.27;;;12.68;;
51913;SDS011;37940;53.002;6.930;2022-11-20T06:13:31;20.27;;;13.73;;
51913;SDS011;37940;53.002;6.930;2022-11-20T06:15:57;21.05;;;13.52;;
51913;SDS011;37940;53.002;6.930;2022-11-20T06:18:22;20.63;;;13.88;;
51913;SDS011;37940;53.002;6.930;2022-11-20T06:20:48;18.92;;;12.98;;
51913;SDS011;37940;53.002;6.930;2022-11-20T06:23:14;19.98;;;12.95;;
51913;SDS011;37940;53.002;6.930;2022-11-20T06:25:40;19.35;;;12.77;;
51913;SDS011;37940;53.002;6.930;2022-11-20T06:28:07;19.88;;;12.80;;
51913;SDS011;37940;53.002;6.930;2022-11-20T06:30:32;22.77;;;12.05;;
51913;SDS011;37940;53.002;6.930;2022-11-20T06:32:58;21.38;;;13.20;;
51913;SDS011;37940;53.002;6.930;2022-11-20T06:35:24;19.55;;;12.07;;
51913;SDS011;37940;53.002;6.930;2022-11-20T06:37:50;22.35;;;12.63;;
51913;SDS011;37940;53.002;6.930;2022-11-20T06:40:15;19.52;;;12.27;;
51913;SDS011;37940;53.002;6.930;2022-11-20T06:42:41;18.05;;;11.85;;
51913;SDS011;37940;53.002;6.930;2022-11-20T06:45:07;20.02;;;12.15;;
51913;SDS011;37940;53.002;6.930;2022-11-20T06:47:33;19.88;;;12.35;;
51913;SDS011;37940;53.002;6.930;2022-11-20T06:49:59;19.77;;;12.50;;
51913;SDS011;37940;53.002;6.930;2022-11-20T06:52:25;20.67;;;12.45;;
51913;SDS011;37940;53.002;6.930;2022-11-20T06:54:50;19.75;;;12.95;;
51913;SDS011;37940;53.002;6.930;2022-11-20T06:57:16;20.23;;;13.07;;
51913;SDS011;37940;53.002;6.930;2022-11-20T06:59:42;20.77;;;12.68;;
51913;SDS011;37940;53.002;6.930;2022-11-20T07:02:11;20.70;;;12.65;;
51913;SDS011;37940;53.002;6.930;2022-11-20T07:04:37;18.83;;;11.60;;
51913;SDS011;37940;53.002;6.930;2022-11-20T07:07:03;19.98;;;12.90;;
51913;SDS011;37940;53.002;6.930;2022-11-20T07:09:31;19.15;;;12.63;;
51913;SDS011;37940;53.002;6.930;2022-11-20T07:11:57;20.83;;;13.13;;
51913;SDS011;37940;53.002;6.930;2022-11-20T07:14:23;20.67;;;13.32;;
51913;SDS011;37940;53.002;6.930;2022-11-20T07:16:48;21.73;;;12.65;;
51913;SDS011;37940;53.002;6.930;2022-11-20T07:19:14;20.95;;;12.10;;
51913;SDS011;37940;53.002;6.930;2022-11-20T07:21:40;21.65;;;12.52;;
51913;SDS011;37940;53.002;6.930;2022-11-20T07:24:05;23.08;;;13.02;;
51913;SDS011;37940;53.002;6.930;2022-11-20T07:26:31;19.85;;;12.70;;
51913;SDS011;37940;53.002;6.930;2022-11-20T07:28:57;19.50;;;12.38;;
51913;SDS011;37940;53.002;6.930;2022-11-20T07:31:22;19.58;;;12.10;;
51913;SDS011;37940;53.002;6.930;2022-11-20T07:33:48;20.02;;;12.77;;
51913;SDS011;37940;53.002;6.930;2022-11-20T07:36:14;18.60;;;12.07;;
51913;SDS011;37940;53.002;6.930;2022-11-20T07:38:40;19.00;;;11.93;;
51913;SDS011;37940;53.002;6.930;2022-11-20T07:41:05;20.65;;;12.73;;
51913;SDS011;37940;53.002;6.930;2022-11-20T07:43:31;18.88;;;12.82;;
51913;SDS011;37940;53.002;6.930;2022-11-20T07:45:57;23.17;;;12.63;;
51913;SDS011;37940;53.002;6.930;2022-11-20T07:48:24;20.88;;;12.68;;
51913;SDS011;37940;53.002;6.930;2022-11-20T07:50:56;19.85;;;12.50;;
51913;SDS011;37940;53.002;6.930;2022-11-20T07:53:22;20.05;;;13.07;;
51913;SDS011;37940;53.002;6.930;2022-11-20T07:55:48;21.80;;;12.85;;
51913;SDS011;37940;53.002;6.930;2022-11-20T07:58:14;18.77;;;12.88;;
51913;SDS011;37940;53.002;6.930;2022-11-20T08:00:40;20.52;;;13.38;;
51913;SDS011;37940;53.002;6.930;2022-11-20T08:03:06;21.13;;;13.63;;
51913;SDS011;37940;53.002;6.930;2022-11-20T08:05:32;20.05;;;12.95;;
51913;SDS011;37940;53.002;6.930;2022-11-20T08:07:58;23.02;;;13.73;;
51913;SDS011;37940;53.002;6.930;2022-11-20T08:10:24;20.02;;;12.35;;
51913;SDS011;37940;53.002;6.930;2022-11-20T08:12:50;19.45;;;11.98;;
51913;SDS011;37940;53.002;6.930;2022-11-20T08:15:35;19.63;;;12.90;;
51913;SDS011;37940;53.002;6.930;2022-11-20T08:18:03;19.95;;;12.40;;
51913;SDS011;37940;53.002;6.930;2022-11-20T08:20:31;18.63;;;12.05;;
51913;SDS011;37940;53.002;6.930;2022-11-20T08:22:57;17.67;;;11.48;;
51913;SDS011;37940;53.002;6.930;2022-11-20T08:25:25;16.65;;;10.90;;
51913;SDS011;37940;53.002;6.930;2022-11-20T08:27:51;19.67;;;11.55;;
51913;SDS011;37940;53.002;6.930;2022-11-20T08:30:16;19.05;;;10.77;;
51913;SDS011;37940;53.002;6.930;2022-11-20T08:32:42;16.33;;;11.18;;
51913;SDS011;37940;53.002;6.930;2022-11-20T08:35:08;16.85;;;11.35;;
51913;SDS011;37940;53.002;6.930;2022-11-20T08:37:34;17.48;;;11.68;;
51913;SDS011;37940;53.002;6.930;2022-11-20T08:40:00;17.10;;;11.32;;
51913;SDS011;37940;53.002;6.930;2022-11-20T08:42:25;19.77;;;11.25;;
51913;SDS011;37940;53.002;6.930;2022-11-20T08:44:51;17.48;;;11.82;;
51913;SDS011;37940;53.002;6.930;2022-11-20T08:47:17;18.70;;;11.77;;
51913;SDS011;37940;53.002;6.930;2022-11-20T08:49:42;23.17;;;13.68;;
51913;SDS011;37940;53.002;6.930;2022-11-20T08:52:08;19.10;;;12.60;;
51913;SDS011;37940;53.002;6.930;2022-11-20T08:54:33;19.20;;;11.25;;
51913;SDS011;37940;53.002;6.930;2022-11-20T08:56:59;15.18;;;10.20;;
51913;SDS011;37940;53.002;6.930;2022-11-20T08:59:25;15.93;;;10.77;;
51913;SDS011;37940;53.002;6.930;2022-11-20T09:01:51;16.95;;;10.52;;
51913;SDS011;37940;53.002;6.930;2022-11-20T09:04:16;17.50;;;11.32;;
51913;SDS011;37940;53.002;6.930;2022-11-20T09:06:42;19.10;;;11.57;;
51913;SDS011;37940;53.002;6.930;2022-11-20T09:09:08;16.05;;;10.65;;
51913;SDS011;37940;53.002;6.930;2022-11-20T09:11:34;17.27;;;11.73;;
51913;SDS011;37940;53.002;6.930;2022-11-20T09:14:00;16.00;;;10.55;;
51913;SDS011;37940;53.002;6.930;2022-11-20T09:16:27;17.00;;;11.23;;
51913;SDS011;37940;53.002;6.930;2022-11-20T09:18:53;17.48;;;11.23;;
51913;SDS011;37940;53.002;6.930;2022-11-20T09:21:19;19.65;;;11.38;;
51913;SDS011;37940;53.002;6.930;2022-11-20T09:23:44;15.75;;;10.90;;
51913;SDS011;37940;53.002;6.930;2022-11-20T09:26:12;16.40;;;11.05;;
51913;SDS011;37940;53.002;6.930;2022-11-20T09:28:39;19.02;;;12.38;;
51913;SDS011;37940;53.002;6.930;2022-11-20T09:31:05;17.33;;;11.45;;
51913;SDS011;37940;53.002;6.930;2022-11-20T09:33:42;16.40;;;11.15;;
51913;SDS011;37940;53.002;6.930;2022-11-20T09:36:08;19.20;;;11.38;;
51913;SDS011;37940;53.002;6.930;2022-11-20T09:38:34;16.70;;;10.45;;
51913;SDS011;37940;53.002;6.930;2022-11-20T09:41:04;16.25;;;10.85;;
51913;SDS011;37940;53.002;6.930;2022-11-20T09:43:46;16.63;;;10.95;;
51913;SDS011;37940;53.002;6.930;2022-11-20T09:49:09;16.15;;;11.30;;
51913;SDS011;37940;53.002;6.930;2022-11-20T09:51:53;16.45;;;11.18;;
51913;SDS011;37940;53.002;6.930;2022-11-20T09:54:35;16.33;;;11.18;;
51913;SDS011;37940;53.002;6.930;2022-11-20T09:59:38;20.00;;;10.20;;
51913;SDS011;37940;53.002;6.930;2022-11-20T10:05:25;16.48;;;10.90;;
51913;SDS011;37940;53.002;6.930;2022-11-20T10:07:53;15.70;;;10.57;;
51913;SDS011;37940;53.002;6.930;2022-11-20T10:15:53;16.40;;;10.45;;
51913;SDS011;37940;53.002;6.930;2022-11-20T10:18:42;14.57;;;10.52;;
51913;SDS011;37940;53.002;6.930;2022-11-20T10:30:00;16.70;;;10.52;;
51913;SDS011;37940;53.002;6.930;2022-11-20T10:32:30;14.80;;;10.35;;
51913;SDS011;37940;53.002;6.930;2022-11-20T10:37:40;12.85;;;9.10;;
51913;SDS011;37940;53.002;6.930;2022-11-20T10:42:45;16.17;;;9.90;;
51913;SDS011;37940;53.002;6.930;2022-11-20T10:47:51;15.02;;;9.88;;
51913;SDS011;37940;53.002;6.930;2022-11-20T10:50:40;14.55;;;9.63;;
51913;SDS011;37940;53.002;6.930;2022-11-20T10:53:51;15.65;;;10.48;;
51913;SDS011;37940;53.002;6.930;2022-11-20T10:59:35;15.20;;;10.60;;
51913;SDS011;37940;53.002;6.930;2022-11-20T11:04:47;16.10;;;9.05;;
51913;SDS011;37940;53.002;6.930;2022-11-20T11:09:53;11.68;;;8.40;;
51913;SDS011;37940;53.002;6.930;2022-11-20T11:12:21;14.48;;;8.98;;
51913;SDS011;37940;53.002;6.930;2022-11-20T11:14:52;14.52;;;8.77;;
51913;SDS011;37940;53.002;6.930;2022-11-20T11:22:42;13.55;;;7.78;;
51913;SDS011;37940;53.002;6.930;2022-11-20T11:25:18;13.63;;;8.75;;
51913;SDS011;37940;53.002;6.930;2022-11-20T11:27:50;10.13;;;7.43;;
51913;SDS011;37940;53.002;6.930;2022-11-20T11:30:17;11.43;;;7.80;;
51913;SDS011;37940;53.002;6.930;2022-11-20T11:32:44;11.80;;;8.13;;
51913;SDS011;37940;53.002;6.930;2022-11-20T11:35:20;11.93;;;7.88;;
51913;SDS011;37940;53.002;6.930;2022-11-20T11:37:48;12.32;;;8.40;;
51913;SDS011;37940;53.002;6.930;2022-11-20T11:40:16;12.15;;;9.13;;
51913;SDS011;37940;53.002;6.930;2022-11-20T11:42:46;12.50;;;8.80;;
51913;SDS011;37940;53.002;6.930;2022-11-20T11:45:18;11.73;;;8.45;;
51913;SDS011;37940;53.002;6.930;2022-11-20T11:47:45;13.18;;;8.68;;
51913;SDS011;37940;53.002;6.930;2022-11-20T11:50:20;12.82;;;9.38;;
51913;SDS011;37940;53.002;6.930;2022-11-20T11:52:56;14.93;;;9.07;;
51913;SDS011;37940;53.002;6.930;2022-11-20T11:55:35;13.13;;;8.25;;
51913;SDS011;37940;53.002;6.930;2022-11-20T11:58:11;11.98;;;8.13;;
51913;SDS011;37940;53.002;6.930;2022-11-20T12:06:26;11.88;;;7.68;;
51913;SDS011;37940;53.002;6.930;2022-11-20T12:08:58;14.57;;;7.82;;
51913;SDS011;37940;53.002;6.930;2022-11-20T12:14:34;13.25;;;8.20;;
51913;SDS011;37940;53.002;6.930;2022-11-20T12:17:04;14.18;;;8.40;;
51913;SDS011;37940;53.002;6.930;2022-11-20T12:19:37;10.45;;;7.05;;
51913;SDS011;37940;53.002;6.930;2022-11-20T12:25:00;11.50;;;7.37;;
51913;SDS011;37940;53.002;6.930;2022-11-20T12:30:22;12.80;;;8.18;;
51913;SDS011;37940;53.002;6.930;2022-11-20T13:01:25;9.80;;;6.40;;
51913;SDS011;37940;53.002;6.930;2022-11-20T13:04:16;9.70;;;6.78;;
51913;SDS011;37940;53.002;6.930;2022-11-20T13:06:56;10.10;;;6.43;;
51913;SDS011;37940;53.002;6.930;2022-11-20T13:09:23;14.27;;;7.30;;
51913;SDS011;37940;53.002;6.930;2022-11-20T13:12:06;10.93;;;7.30;;
51913;SDS011;37940;53.002;6.930;2022-11-20T13:15:18;10.23;;;7.73;;
51913;SDS011;37940;53.002;6.930;2022-11-20T13:18:08;11.15;;;6.97;;
51913;SDS011;37940;53.002;6.930;2022-11-20T13:20:36;12.48;;;7.68;;
51913;SDS011;37940;53.002;6.930;2022-11-20T13:23:07;9.73;;;7.28;;
51913;SDS011;37940;53.002;6.930;2022-11-20T13:25:34;12.38;;;8.23;;
51913;SDS011;37940;53.002;6.930;2022-11-20T13:28:27;13.15;;;8.75;;
51913;SDS011;37940;53.002;6.930;2022-11-20T13:30:53;13.23;;;9.15;;
51913;SDS011;37940;53.002;6.930;2022-11-20T13:33:30;12.57;;;8.88;;
51913;SDS011;37940;53.002;6.930;2022-11-20T13:35:59;11.65;;;8.15;;
51913;SDS011;37940;53.002;6.930;2022-11-20T13:38:52;12.23;;;9.05;;
51913;SDS011;37940;53.002;6.930;2022-11-20T13:41:26;14.02;;;7.97;;
51913;SDS011;37940;53.002;6.930;2022-11-20T13:47:03;11.80;;;8.18;;
51913;SDS011;37940;53.002;6.930;2022-11-20T13:49:38;11.88;;;8.40;;
51913;SDS011;37940;53.002;6.930;2022-11-20T13:55:18;12.48;;;8.52;;
51913;SDS011;37940;53.002;6.930;2022-11-20T13:58:24;13.57;;;8.50;;
51913;SDS011;37940;53.002;6.930;2022-11-20T14:01:10;12.95;;;7.88;;
51913;SDS011;37940;53.002;6.930;2022-11-20T14:03:41;12.18;;;8.23;;
51913;SDS011;37940;53.002;6.930;2022-11-20T14:06:11;11.85;;;8.32;;
51913;SDS011;37940;53.002;6.930;2022-11-20T14:08:46;11.85;;;8.05;;
51913;SDS011;37940;53.002;6.930;2022-11-20T14:11:16;15.05;;;9.07;;
51913;SDS011;37940;53.002;6.930;2022-11-20T14:13:54;14.27;;;8.90;;
51913;SDS011;37940;53.002;6.930;2022-11-20T14:16:20;13.93;;;8.95;;
51913;SDS011;37940;53.002;6.930;2022-11-20T14:18:46;12.00;;;8.50;;
51913;SDS011;37940;53.002;6.930;2022-11-20T14:21:20;13.73;;;8.95;;
51913;SDS011;37940;53.002;6.930;2022-11-20T14:23:54;15.25;;;10.02;;
51913;SDS011;37940;53.002;6.930;2022-11-20T14:26:28;13.73;;;9.70;;
51913;SDS011;37940;53.002;6.930;2022-11-20T14:28:54;13.73;;;9.63;;
51913;SDS011;37940;53.002;6.930;2022-11-20T14:31:24;14.80;;;9.40;;
51913;SDS011;37940;53.002;6.930;2022-11-20T14:33:52;13.68;;;8.98;;
51913;SDS011;37940;53.002;6.930;2022-11-20T14:36:20;16.27;;;10.23;;
51913;SDS011;37940;53.002;6.930;2022-11-20T14:38:48;17.88;;;9.68;;
51913;SDS011;37940;53.002;6.930;2022-11-20T14:41:20;13.50;;;9.20;;
51913;SDS011;37940;53.002;6.930;2022-11-20T14:43:50;15.52;;;9.35;;
51913;SDS011;37940;53.002;6.930;2022-11-20T14:46:23;16.92;;;9.10;;
51913;SDS011;37940;53.002;6.930;2022-11-20T14:48:51;13.30;;;8.38;;
51913;SDS011;37940;53.002;6.930;2022-11-20T14:56:35;14.60;;;8.90;;
51913;SDS011;37940;53.002;6.930;2022-11-20T14:59:01;13.30;;;9.00;;
51913;SDS011;37940;53.002;6.930;2022-11-20T15:01:28;13.70;;;9.20;;
51913;SDS011;37940;53.002;6.930;2022-11-20T15:04:01;13.25;;;8.90;;
51913;SDS011;37940;53.002;6.930;2022-11-20T15:06:31;14.45;;;9.05;;
51913;SDS011;37940;53.002;6.930;2022-11-20T15:08:57;14.77;;;8.90;;
51913;SDS011;37940;53.002;6.930;2022-11-20T15:11:27;15.30;;;9.43;;
51913;SDS011;37940;53.002;6.930;2022-11-20T15:13:58;15.77;;;9.07;;
51913;SDS011;37940;53.002;6.930;2022-11-20T15:16:28;13.15;;;8.88;;
51913;SDS011;37940;53.002;6.930;2022-11-20T15:18:54;15.35;;;9.20;;
51913;SDS011;37940;53.002;6.930;2022-11-20T15:21:20;12.82;;;8.38;;
51913;SDS011;37940;53.002;6.930;2022-11-20T15:23:46;14.52;;;7.93;;
51913;SDS011;37940;53.002;6.930;2022-11-20T15:26:13;13.68;;;8.90;;
51913;SDS011;37940;53.002;6.930;2022-11-20T15:28:44;17.42;;;8.98;;
51913;SDS011;37940;53.002;6.930;2022-11-20T15:31:13;14.27;;;9.05;;
51913;SDS011;37940;53.002;6.930;2022-11-20T15:33:40;14.20;;;8.88;;
51913;SDS011;37940;53.002;6.930;2022-11-20T15:36:06;13.80;;;9.07;;
51913;SDS011;37940;53.002;6.930;2022-11-20T15:38:32;18.95;;;9.13;;
51913;SDS011;37940;53.002;6.930;2022-11-20T15:40:57;13.23;;;8.75;;
51913;SDS011;37940;53.002;6.930;2022-11-20T15:43:23;16.25;;;8.95;;
51913;SDS011;37940;53.002;6.930;2022-11-20T15:45:49;15.05;;;10.05;;
51913;SDS011;37940;53.002;6.930;2022-11-20T15:48:41;15.70;;;9.27;;
51913;SDS011;37940;53.002;6.930;2022-11-20T15:53:35;14.32;;;9.02;;
51913;SDS011;37940;53.002;6.930;2022-11-20T15:56:05;14.73;;;9.80;;
51913;SDS011;37940;53.002;6.930;2022-11-20T15:58:33;15.93;;;9.80;;
51913;SDS011;37940;53.002;6.930;2022-11-20T16:00:59;14.93;;;9.57;;
51913;SDS011;37940;53.002;6.930;2022-11-20T16:03:25;14.68;;;9.77;;
51913;SDS011;37940;53.002;6.930;2022-11-20T16:05:50;14.20;;;9.25;;
51913;SDS011;37940;53.002;6.930;2022-11-20T16:08:16;15.45;;;9.65;;
51913;SDS011;37940;53.002;6.930;2022-11-20T16:10:42;16.15;;;10.05;;
51913;SDS011;37940;53.002;6.930;2022-11-20T16:13:11;16.10;;;9.65;;
51913;SDS011;37940;53.002;6.930;2022-11-20T16:15:59;14.40;;;9.30;;
51913;SDS011;37940;53.002;6.930;2022-11-20T16:18:30;16.08;;;9.40;;
51913;SDS011;37940;53.002;6.930;2022-11-20T16:20:56;16.30;;;9.80;;
51913;SDS011;37940;53.002;6.930;2022-11-20T16:23:22;15.45;;;9.40;;
51913;SDS011;37940;53.002;6.930;2022-11-20T16:25:49;14.88;;;9.73;;